Archiv-/Tagesdaten

--Timestamp---	Temp	Chill	HIndex	Humid	Dewpt	 Wind 	HiWind	WindDir	Rain 	Barom	Solar	 ET  	 UV 
--------------	----	-----	------	-----	-----	------	------	-------	-----	-----	-----	-----	----
20110113 00:00	5.4	2.4	5.4	92	4.2	14	24	248	0.0	1016.9	0	0.025	0.0
20110113 00:05	5.5	2.5	5.5	92	4.3	14	23	248	0.2	1016.7	0	0.000	0.0
20110113 00:10	5.5	2.5	5.5	92	4.3	14	24	248	0.2	1016.7	0	0.000	0.0
20110113 00:15	5.5	2.2	5.5	92	4.3	16	26	248	0.0	1016.5	0	0.000	0.0
20110113 00:20	5.6	2.3	5.6	92	4.4	16	27	248	0.2	1016.5	0	0.000	0.0
20110113 00:25	5.6	2.4	5.6	92	4.4	16	26	248	0.2	1016.4	0	0.000	0.0
20110113 00:30	5.7	2.2	5.7	92	4.5	18	27	248	0.0	1016.3	0	0.000	0.0
20110113 00:35	5.7	2.3	5.7	92	4.5	18	27	248	0.2	1016.3	0	0.000	0.0
20110113 00:40	5.8	2.3	5.8	92	4.6	18	32	248	0.2	1016.3	0	0.000	0.0
20110113 00:45	5.8	2.6	5.8	92	4.6	16	26	248	0.0	1016.2	0	0.000	0.0
20110113 00:50	5.9	2.3	5.9	92	4.7	19	29	248	0.2	1016.1	0	0.000	0.0
20110113 00:55	5.9	2.8	5.9	92	4.7	16	34	248	0.0	1016.0	0	0.000	0.0
20110113 01:00	6.0	2.8	6.0	92	4.8	16	27	248	0.2	1016.0	0	0.025	0.0
20110113 01:05	6.1	2.9	6.1	92	4.9	16	29	270	0.2	1015.8	0	0.000	0.0
20110113 01:10	6.1	2.6	6.1	92	4.9	19	32	248	0.2	1015.7	0	0.000	0.0
20110113 01:15	6.2	2.6	6.2	92	5.0	19	35	248	0.0	1015.7	0	0.000	0.0
20110113 01:20	6.2	2.7	6.2	92	5.0	19	45	248	0.2	1015.5	0	0.000	0.0
20110113 01:25	6.3	2.8	6.3	91	4.9	19	39	248	0.2	1015.5	0	0.000	0.0
20110113 01:30	6.3	2.8	6.3	91	5.0	19	31	248	0.2	1015.5	0	0.000	0.0
20110113 01:35	6.3	3.0	6.3	91	5.0	18	35	248	0.2	1015.5	0	0.000	0.0
20110113 01:40	6.4	2.9	6.4	91	5.0	19	34	248	0.2	1015.4	0	0.000	0.0
20110113 01:45	6.4	2.8	6.4	91	5.1	21	32	248	0.0	1015.4	0	0.000	0.0
20110113 01:50	6.4	2.8	6.4	92	5.2	21	37	248	0.2	1015.3	0	0.000	0.0
20110113 01:55	6.5	3.1	6.5	92	5.3	19	34	248	0.4	1015.3	0	0.000	0.0
20110113 02:00	6.5	3.1	6.5	92	5.3	19	31	248	0.2	1015.2	0	0.025	0.0
20110113 02:05	6.5	3.5	6.5	92	5.3	16	29	248	0.0	1015.1	0	0.000	0.0
20110113 02:10	6.6	3.3	6.6	92	5.3	18	32	248	0.2	1015.2	0	0.000	0.0
20110113 02:15	6.6	3.1	6.6	92	5.3	19	37	248	0.2	1015.1	0	0.000	0.0
20110113 02:20	6.6	3.4	6.6	92	5.4	18	27	248	0.2	1015.1	0	0.000	0.0
20110113 02:25	6.6	3.4	6.6	92	5.4	18	29	248	0.2	1014.9	0	0.000	0.0
20110113 02:30	6.7	3.9	6.7	92	5.5	14	26	248	0.2	1014.9	0	0.000	0.0
20110113 02:35	6.7	3.9	6.7	92	5.5	14	29	248	0.0	1014.7	0	0.000	0.0
20110113 02:40	6.7	3.5	6.7	92	5.5	18	32	248	0.0	1014.7	0	0.000	0.0
20110113 02:45	6.8	3.8	6.8	91	5.4	16	26	248	0.2	1014.7	0	0.000	0.0
20110113 02:50	6.8	3.8	6.8	91	5.4	16	29	248	0.0	1014.7	0	0.000	0.0
20110113 02:55	6.8	3.7	6.8	91	5.5	18	29	248	0.0	1014.6	0	0.000	0.0
20110113 03:00	6.8	3.9	6.8	91	5.5	16	29	248	0.0	1014.7	-100000	0.025	0.0
20110113 03:05	6.9	3.4	6.9	91	5.5	21	31	248	0.2	1014.8	0	0.000	0.0
20110113 03:10	6.9	3.5	6.9	91	5.5	19	34	248	0.0	1014.7	0	0.000	0.0
20110113 03:15	6.9	3.3	6.9	91	5.6	23	37	248	0.0	1014.5	0	0.000	0.0
20110113 03:20	6.9	3.3	6.9	91	5.6	23	34	248	0.0	1014.3	0	0.000	0.0
20110113 03:25	7.0	3.5	7.0	91	5.6	21	34	248	0.2	1014.3	0	0.000	0.0
20110113 03:30	7.0	3.3	7.0	91	5.6	23	39	248	0.0	1014.3	0	0.000	0.0
20110113 03:35	7.1	3.1	7.1	91	5.7	26	48	248	0.0	1014.3	0	0.000	0.0
20110113 03:40	7.1	3.6	7.1	90	5.6	21	37	248	0.0	1014.3	0	0.000	0.0
20110113 03:45	7.2	3.4	7.2	90	5.6	24	45	248	0.0	1014.3	0	0.000	0.0
20110113 03:50	7.2	3.5	7.2	90	5.7	24	39	248	0.0	1014.2	0	0.000	0.0
20110113 03:55	7.2	3.3	7.2	90	5.7	26	40	248	0.0	1014.3	0	0.000	0.0
20110113 04:00	7.2	3.6	7.2	90	5.7	23	37	248	0.0	1014.2	0	0.025	0.0
20110113 04:05	7.2	3.3	7.2	90	5.7	26	39	270	0.0	1014.3	0	0.000	0.0
20110113 04:10	7.3	3.5	7.3	90	5.7	24	35	248	0.0	1014.3	0	0.000	0.0
20110113 04:15	7.3	3.9	7.3	91	5.9	21	29	248	0.0	1014.3	0	0.000	0.0
20110113 04:20	7.2	3.8	7.2	91	5.9	21	35	248	0.0	1014.2	0	0.000	0.0
20110113 04:25	7.3	3.9	7.3	91	5.9	21	37	248	0.2	1014.2	0	0.000	0.0
20110113 04:30	7.3	3.8	7.3	91	6.0	23	40	248	0.0	1014.0	0	0.000	0.0
20110113 04:35	7.4	4.0	7.4	91	6.0	21	39	248	0.0	1014.1	0	0.000	0.0
20110113 04:40	7.4	4.2	7.4	91	6.0	19	31	248	0.0	1014.1	0	0.000	0.0
20110113 04:45	7.4	3.8	7.4	91	6.1	24	47	270	0.2	1014.1	0	0.000	0.0
20110113 04:50	7.5	3.8	7.5	91	6.1	24	40	248	0.0	1014.1	0	0.000	0.0
20110113 04:55	7.5	4.1	7.5	91	6.1	21	40	248	0.2	1014.0	0	0.000	0.0
20110113 05:00	7.6	4.2	7.6	91	6.2	21	35	248	0.0	1014.1	0	0.025	0.0
20110113 05:05	7.6	4.2	7.6	91	6.2	21	34	270	0.0	1014.1	0	0.000	0.0
20110113 05:10	7.6	4.3	7.6	91	6.2	21	37	270	0.0	1014.2	0	0.000	0.0
20110113 05:15	7.7	4.3	7.7	91	6.3	21	40	270	0.0	1014.3	0	0.000	0.0
20110113 05:20	7.7	4.3	7.7	90	6.2	23	37	270	0.0	1014.1	0	0.000	0.0
20110113 05:25	7.8	4.7	7.8	90	6.2	19	35	270	0.0	1014.4	0	0.000	0.0
20110113 05:30	7.8	4.8	7.8	90	6.2	18	37	270	0.0	1014.4	0	0.000	0.0
20110113 05:35	7.8	4.8	7.8	90	6.2	18	29	270	0.0	1014.5	0	0.000	0.0
20110113 05:40	7.8	4.3	7.8	91	6.4	23	40	270	0.0	1014.5	0	0.000	0.0
20110113 05:45	7.8	4.7	7.8	91	6.4	19	31	270	0.0	1014.5	0	0.000	0.0
20110113 05:50	7.8	4.7	7.8	91	6.4	19	31	270	0.0	1014.5	0	0.000	0.0
20110113 05:55	7.8	4.5	7.8	91	6.4	21	37	270	0.0	1014.5	0	0.000	0.0
20110113 06:00	7.9	4.4	7.9	90	6.4	24	39	270	0.0	1014.4	0	0.025	0.0
20110113 06:05	7.9	4.7	7.9	90	6.4	21	37	270	0.0	1014.5	0	0.000	0.0
20110113 06:10	8.0	4.6	8.0	90	6.5	23	42	270	0.0	1014.5	0	0.000	0.0
20110113 06:15	8.0	4.9	8.0	90	6.5	19	35	270	0.0	1014.5	0	0.000	0.0
20110113 06:20	8.0	4.6	8.0	90	6.5	23	32	270	0.0	1014.3	0	0.000	0.0
20110113 06:25	8.0	4.9	8.0	90	6.5	19	32	270	0.0	1014.6	0	0.000	0.0
20110113 06:30	8.0	5.1	8.0	90	6.5	18	40	270	0.0	1014.6	0	0.000	0.0
20110113 06:35	8.0	5.1	8.0	90	6.5	18	27	270	0.0	1014.6	0	0.000	0.0
20110113 06:40	8.1	4.7	8.1	90	6.5	23	37	270	0.0	1014.6	0	0.000	0.0
20110113 06:45	8.0	5.1	8.0	91	6.6	18	29	270	0.2	1014.6	0	0.000	0.0
20110113 06:50	7.9	5.1	7.9	91	6.6	18	32	270	0.0	1014.6	0	0.000	0.0
20110113 06:55	7.9	5.1	7.9	91	6.6	18	31	270	0.0	1014.6	0	0.000	0.0
20110113 07:00	8.0	4.8	8.0	91	6.6	21	35	270	0.2	1014.6	0	0.025	0.0
20110113 07:05	7.9	5.5	7.9	91	6.6	14	26	248	0.0	1014.6	0	0.000	0.0
20110113 07:10	7.9	5.1	7.9	91	6.6	18	32	270	0.0	1014.6	0	0.000	0.0
20110113 07:15	7.9	4.9	7.9	92	6.7	19	35	270	0.0	1014.7	0	0.000	0.0
20110113 07:20	7.9	5.1	7.9	92	6.7	18	27	270	0.0	1014.7	0	0.000	0.0
20110113 07:25	7.9	5.1	7.9	92	6.7	18	29	270	0.2	1014.8	0	0.000	0.0
20110113 07:30	7.9	5.1	7.9	92	6.7	18	29	270	0.0	1014.7	0	0.000	0.0
20110113 07:35	7.9	5.3	7.9	92	6.7	16	31	248	0.2	1014.8	0	0.000	0.0
20110113 07:40	7.9	5.3	7.9	92	6.7	16	26	270	0.0	1014.8	0	0.000	0.0
20110113 07:45	8.1	4.8	8.1	92	6.8	21	37	270	0.0	1014.8	0	0.000	0.0
20110113 07:50	8.1	5.3	8.1	91	6.7	18	40	270	0.2	1014.7	0	0.000	0.0
20110113 07:55	8.1	5.5	8.1	91	6.7	16	32	270	0.0	1014.7	0	0.000	0.0
20110113 08:00	8.1	5.7	8.1	91	6.7	14	29	270	0.0	1014.8	0	0.025	0.0
20110113 08:05	8.1	5.0	8.1	91	6.7	19	31	270	0.2	1014.9	0	0.000	0.0
20110113 08:10	8.1	5.4	8.1	92	6.8	16	26	270	0.0	1015.0	0	0.000	0.0
20110113 08:15	8.1	5.4	8.1	92	6.8	16	29	270	0.0	1015.0	0	0.000	0.0
20110113 08:20	8.1	5.4	8.1	92	6.8	16	31	270	0.0	1015.0	0	0.000	0.0
20110113 08:25	8.1	5.2	8.1	91	6.7	18	32	270	0.0	1015.0	0	0.000	0.0
20110113 08:30	8.1	5.5	8.1	91	6.7	16	26	270	0.0	1015.1	0	0.000	0.0
20110113 08:35	8.2	5.5	8.2	91	6.8	16	29	270	0.0	1015.2	0	0.000	0.0
20110113 08:40	8.2	5.5	8.2	91	6.8	16	24	270	0.0	1015.2	0	0.000	0.0
20110113 08:45	8.2	5.8	8.2	91	6.8	14	26	270	0.2	1015.2	4	0.000	0.0
20110113 08:50	8.2	5.6	8.2	91	6.8	16	27	248	0.0	1015.1	9	0.000	0.0
20110113 08:55	8.2	5.8	8.2	91	6.8	14	26	270	0.2	1015.1	7	0.000	0.0
20110113 09:00	8.2	5.6	8.2	91	6.8	16	32	270	0.0	1015.1	11	0.025	0.0
20110113 09:05	8.2	5.6	8.2	91	6.8	16	26	270	0.0	1015.2	13	0.000	0.0
20110113 09:10	8.2	6.0	8.2	91	6.8	13	23	270	0.0	1015.3	12	0.000	0.0
20110113 09:15	8.2	5.6	8.2	91	6.8	16	29	270	0.2	1015.3	12	0.000	0.0
20110113 09:20	8.2	5.8	8.2	91	6.8	14	26	270	0.0	1015.3	11	0.000	0.0
20110113 09:25	8.2	5.6	8.2	91	6.8	16	29	270	0.0	1015.2	9	0.000	0.0
20110113 09:30	8.2	5.2	8.2	91	6.8	19	35	248	0.2	1015.2	14	0.000	0.0
20110113 09:35	8.3	5.3	8.3	91	6.9	19	39	270	0.0	1015.2	14	0.000	0.0
20110113 09:40	8.3	5.3	8.3	91	6.9	19	29	270	0.2	1015.1	14	0.000	0.0
20110113 09:45	8.3	5.5	8.3	91	6.9	18	27	270	0.0	1015.1	17	0.000	0.0
20110113 09:50	8.3	5.7	8.3	91	6.9	16	27	270	0.0	1015.1	18	0.000	0.0
20110113 09:55	8.3	5.2	8.3	91	7.0	21	35	270	0.2	1015.1	16	0.000	0.0
20110113 10:00	8.3	5.5	8.3	91	7.0	18	27	270	0.0	1015.2	20	0.025	0.0
20110113 10:05	8.4	5.6	8.4	91	7.0	18	29	270	0.2	1015.1	17	0.000	0.0
20110113 10:10	8.4	5.6	8.4	91	7.0	18	32	270	0.0	1015.1	28	0.000	0.0
20110113 10:15	8.4	5.7	8.4	91	7.1	18	32	248	0.0	1015.2	27	0.000	0.0
20110113 10:20	8.4	5.5	8.4	91	7.1	19	32	270	0.2	1015.1	25	0.000	0.0
20110113 10:25	8.5	5.7	8.5	91	7.1	18	32	248	0.0	1015.3	29	0.000	0.0
20110113 10:30	8.5	5.6	8.5	91	7.1	19	32	270	0.2	1015.2	34	0.000	0.0
20110113 10:35	8.6	5.8	8.6	91	7.2	18	29	270	0.0	1015.3	29	0.000	0.0
20110113 10:40	8.6	5.5	8.6	91	7.2	21	32	248	0.2	1015.4	29	0.000	0.0
20110113 10:45	8.6	5.7	8.6	91	7.2	19	29	270	0.0	1015.3	37	0.000	0.0
20110113 10:50	8.6	5.7	8.6	91	7.2	19	40	248	0.2	1015.2	51	0.000	0.0
20110113 10:55	8.6	5.7	8.6	91	7.2	19	31	248	0.0	1015.2	47	0.000	0.0
20110113 11:00	8.7	5.8	8.7	91	7.3	19	32	270	0.2	1015.1	35	0.025	0.0
20110113 11:05	8.7	5.3	8.7	91	7.3	24	48	270	0.0	1015.1	30	0.000	0.0
20110113 11:10	8.7	5.5	8.7	91	7.3	23	37	270	0.0	1015.1	33	0.000	0.0
20110113 11:15	8.7	6.0	8.7	91	7.3	18	31	270	0.2	1015.1	43	0.000	0.0
20110113 11:20	8.7	6.0	8.7	91	7.3	18	31	270	0.0	1015.1	46	0.000	0.0
20110113 11:25	8.7	5.8	8.7	91	7.3	19	35	248	0.2	1015.0	43	0.000	0.0
20110113 11:30	8.7	5.8	8.7	91	7.3	19	35	270	0.0	1015.1	41	0.000	0.0
20110113 11:35	8.7	5.8	8.7	91	7.3	19	35	270	0.0	1015.1	43	0.000	0.0
20110113 11:40	8.7	6.2	8.7	91	7.3	16	27	248	0.2	1015.1	39	0.000	0.0
20110113 11:45	8.7	6.2	8.7	91	7.3	16	24	270	0.0	1015.2	32	0.000	0.0
20110113 11:50	8.7	6.0	8.7	91	7.3	18	32	270	0.2	1015.0	44	0.000	0.0
20110113 11:55	8.7	6.2	8.7	91	7.3	16	32	270	0.0	1015.0	53	0.000	0.0
20110113 12:00	8.8	5.9	8.8	91	7.4	19	40	270	0.2	1015.0	47	0.025	0.0
20110113 12:05	8.8	6.1	8.8	91	7.4	18	31	270	0.0	1015.0	44	0.000	0.0
20110113 12:10	8.8	5.8	8.8	91	7.4	21	37	270	0.0	1015.0	46	0.000	0.0
20110113 12:15	8.8	6.0	8.8	91	7.4	19	31	270	0.0	1015.0	46	0.000	0.0
20110113 12:20	8.8	6.2	8.8	91	7.4	18	32	270	0.2	1014.9	43	0.000	0.0
20110113 12:25	8.9	6.1	8.9	91	7.5	19	34	270	0.0	1014.8	46	0.000	0.0
20110113 12:30	8.9	6.3	8.9	91	7.6	18	37	270	0.0	1014.8	55	0.000	0.0
20110113 12:35	8.9	6.0	8.9	91	7.6	21	34	270	0.0	1014.8	59	0.000	0.0
20110113 12:40	9.1	6.0	9.1	91	7.7	23	37	270	0.0	1014.9	51	0.000	0.0
20110113 12:45	9.1	6.0	9.1	90	7.5	23	39	270	0.0	1014.7	47	0.000	0.0
20110113 12:50	9.1	6.0	9.1	91	7.7	23	37	270	0.0	1014.7	43	0.000	0.0
20110113 12:55	9.1	5.8	9.1	91	7.7	24	37	270	0.2	1014.8	39	0.000	0.0
20110113 13:00	9.1	5.6	9.1	90	7.6	27	42	270	0.0	1014.6	37	0.051	0.0
20110113 13:05	9.2	6.0	9.2	90	7.6	24	47	270	0.0	1014.4	45	0.000	0.0
20110113 13:10	9.2	6.0	9.2	90	7.7	24	43	270	0.0	1014.2	53	0.000	0.0
20110113 13:15	9.2	5.7	9.2	90	7.6	27	43	270	0.0	1014.5	32	0.000	0.0
20110113 13:20	9.2	6.0	9.2	90	7.7	24	40	270	0.0	1014.3	40	0.000	0.0
20110113 13:25	9.2	6.1	9.2	90	7.6	23	40	270	0.0	1014.2	57	0.000	0.0
20110113 13:30	9.2	6.2	9.2	90	7.7	23	39	270	0.2	1014.2	53	0.000	0.0
20110113 13:35	9.2	5.9	9.2	90	7.7	26	45	270	0.0	1014.2	44	0.000	0.0
20110113 13:40	9.3	6.1	9.3	90	7.7	24	40	270	0.0	1014.2	36	0.000	0.0
20110113 13:45	9.3	6.1	9.3	89	7.6	24	48	270	0.0	1014.2	32	0.000	0.0
20110113 13:50	9.3	6.0	9.3	89	7.6	26	47	248	0.0	1014.2	33	0.000	0.0
20110113 13:55	9.3	5.8	9.3	89	7.6	27	43	270	0.0	1014.2	32	0.000	0.0
20110113 14:00	9.3	5.6	9.3	89	7.6	31	42	270	0.0	1014.3	38	0.051	0.0
20110113 14:05	9.3	5.8	9.3	89	7.6	27	51	270	0.0	1014.3	29	0.000	0.0
20110113 14:10	9.3	6.0	9.3	89	7.6	26	47	248	0.0	1014.2	35	0.000	0.0
20110113 14:15	9.3	5.8	9.3	89	7.6	27	43	270	0.0	1014.2	39	0.000	0.0
20110113 14:20	9.2	5.9	9.2	89	7.5	26	50	248	0.0	1014.3	40	0.000	0.0
20110113 14:25	9.2	6.2	9.2	89	7.4	21	35	270	0.2	1014.4	35	0.000	0.0
20110113 14:30	9.2	5.8	9.2	89	7.4	26	43	270	0.0	1014.3	24	0.000	0.0
20110113 14:35	9.2	6.1	9.2	90	7.6	23	39	270	0.2	1014.3	27	0.000	0.0
20110113 14:40	9.1	5.8	9.1	90	7.6	26	43	248	0.2	1014.4	31	0.000	0.0
20110113 14:45	9.1	5.8	9.1	89	7.4	26	47	270	0.0	1014.4	26	0.000	0.0
20110113 14:50	9.1	5.8	9.1	89	7.4	26	43	248	0.0	1014.3	25	0.000	0.0
20110113 14:55	9.2	5.8	9.2	89	7.4	26	50	248	0.0	1014.2	25	0.000	0.0
20110113 15:00	9.2	6.0	9.2	89	7.4	24	42	270	0.0	1014.1	-100000	0.051	0.0
20110113 15:05	9.2	5.7	9.2	89	7.4	27	40	270	0.0	1014.2	17	0.000	0.0
20110113 15:10	9.2	5.6	9.2	89	7.4	29	47	248	0.2	1014.2	16	0.000	0.0
20110113 15:15	9.2	5.8	9.2	89	7.4	26	40	270	0.0	1014.2	19	0.000	0.0
20110113 15:20	9.2	5.5	9.2	89	7.5	31	45	270	0.2	1014.2	22	0.000	0.0
20110113 15:25	9.2	5.9	9.2	88	7.3	26	42	270	0.0	1014.2	22	0.000	0.0
20110113 15:30	9.2	5.8	9.2	88	7.3	27	50	270	0.0	1014.2	24	0.000	0.0
20110113 15:35	9.2	5.8	9.2	88	7.3	27	51	248	0.0	1014.3	23	0.000	0.0
20110113 15:40	9.2	5.8	9.2	88	7.3	27	47	270	0.0	1014.4	19	0.000	0.0
20110113 15:45	9.2	5.6	9.2	88	7.3	29	53	248	0.0	1014.2	17	0.000	0.0
20110113 15:50	9.2	5.5	9.2	88	7.3	31	53	248	0.2	1014.2	15	0.000	0.0
20110113 15:55	9.2	5.8	9.2	88	7.3	27	48	248	0.0	1014.3	12	0.000	0.0
20110113 16:00	9.2	5.5	9.2	88	7.3	31	48	248	0.2	1014.1	12	0.000	0.0
20110113 16:05	9.2	5.9	9.2	88	7.3	26	47	248	0.0	1014.1	9	0.051	0.0
20110113 16:10	9.2	5.6	9.2	88	7.3	29	48	248	0.0	1014.3	6	0.000	0.0
20110113 16:15	9.2	5.8	9.2	88	7.3	26	42	248	0.0	1014.3	2	0.000	0.0
20110113 16:20	9.2	6.0	9.2	88	7.3	24	55	270	0.0	1014.3	0	0.000	0.0
20110113 16:25	9.2	5.7	9.2	88	7.3	27	55	248	0.0	1014.4	0	0.000	0.0
20110113 16:30	9.1	5.6	9.1	88	7.2	27	55	248	0.2	1014.5	0	0.000	0.0
20110113 16:35	9.1	5.4	9.1	88	7.2	29	43	270	0.2	1014.7	0	0.000	0.0
20110113 16:40	9.1	5.6	9.1	88	7.2	27	47	248	0.0	1014.6	0	0.000	0.0
20110113 16:45	9.1	5.5	9.1	88	7.2	29	51	270	0.0	1014.6	0	0.000	0.0
20110113 16:50	9.1	5.8	9.1	88	7.2	26	43	270	0.0	1014.6	0	0.000	0.0
20110113 16:55	9.2	5.8	9.2	88	7.3	26	45	248	0.0	1014.6	0	0.000	0.0
20110113 17:00	9.2	5.7	9.2	88	7.3	27	43	270	0.0	1014.6	0	0.025	0.0
20110113 17:05	9.2	5.8	9.2	88	7.3	26	43	270	0.0	1014.7	0	0.000	0.0
20110113 17:10	9.2	5.7	9.2	88	7.3	27	45	270	0.2	1014.8	0	0.000	0.0
20110113 17:15	9.1	5.9	9.1	88	7.2	24	43	248	0.0	1014.7	0	0.000	0.0
20110113 17:20	9.1	5.9	9.1	89	7.4	24	43	248	0.2	1014.9	0	0.000	0.0
20110113 17:25	9.1	5.6	9.1	89	7.4	27	48	248	0.0	1014.8	0	0.000	0.0
20110113 17:30	9.1	5.8	9.1	89	7.4	26	47	248	0.0	1014.9	0	0.000	0.0
20110113 17:35	9.1	5.9	9.1	89	7.4	24	40	248	0.0	1014.9	0	0.000	0.0
20110113 17:40	9.2	5.6	9.2	88	7.3	29	45	248	0.2	1014.9	0	0.000	0.0
20110113 17:45	9.2	6.0	9.2	88	7.3	24	40	248	0.0	1015.0	0	0.000	0.0
20110113 17:50	9.2	6.0	9.2	88	7.3	24	42	248	0.0	1015.1	0	0.000	0.0
20110113 17:55	9.2	5.9	9.2	88	7.3	26	40	270	0.0	1015.1	0	0.000	0.0
20110113 18:00	9.3	6.1	9.3	88	7.4	24	43	270	0.0	1015.1	0	0.025	0.0
20110113 18:05	9.3	5.8	9.3	88	7.4	27	47	270	0.0	1015.1	0	0.000	0.0
20110113 18:10	9.2	6.2	9.2	88	7.3	23	37	248	0.0	1015.2	0	0.000	0.0
20110113 18:15	9.3	6.1	9.3	88	7.4	24	47	248	0.0	1015.2	0	0.000	0.0
20110113 18:20	9.3	6.0	9.3	88	7.4	26	39	248	0.0	1015.3	0	0.000	0.0
20110113 18:25	9.3	5.7	9.3	88	7.4	29	43	248	0.0	1015.2	0	0.000	0.0
20110113 18:30	9.2	5.9	9.2	88	7.3	26	45	270	0.0	1015.3	0	0.000	0.0
20110113 18:35	9.2	5.9	9.2	88	7.3	26	39	248	0.0	1015.3	0	0.000	0.0
20110113 18:40	9.3	6.0	9.3	88	7.4	26	50	270	0.0	1015.4	0	0.000	0.0
20110113 18:45	9.3	5.9	9.3	88	7.4	27	45	270	0.0	1015.4	0	0.000	0.0
20110113 18:50	9.3	6.2	9.3	88	7.4	23	34	270	0.2	1015.4	0	0.000	0.0
20110113 18:55	9.3	6.1	9.3	88	7.4	24	37	248	0.0	1015.5	0	0.000	0.0
20110113 19:00	9.4	6.1	9.4	87	7.3	26	40	270	0.0	1015.5	-100000	0.025	0.0
20110113 19:05	9.4	6.1	9.4	87	7.4	27	50	270	0.0	1015.4	0	0.000	0.0
20110113 19:10	9.3	6.3	9.3	88	7.4	23	42	270	0.0	1015.4	0	0.000	0.0
20110113 19:15	9.2	6.3	9.2	89	7.5	21	42	248	0.0	1015.5	0	0.000	0.0
20110113 19:20	9.2	6.4	9.2	89	7.4	19	35	270	0.0	1015.6	0	0.000	0.0
20110113 19:25	9.2	6.1	9.2	89	7.4	23	37	270	0.0	1015.7	0	0.000	0.0
20110113 19:30	9.2	6.2	9.2	89	7.5	23	39	270	0.0	1015.6	0	0.000	0.0
20110113 19:35	9.2	6.2	9.2	89	7.4	21	32	248	0.0	1015.7	0	0.000	0.0
20110113 19:40	9.2	6.2	9.2	89	7.4	21	39	248	0.0	1015.7	0	0.000	0.0
20110113 19:45	9.2	6.6	9.2	89	7.4	18	35	248	0.0	1015.7	0	0.000	0.0
20110113 19:50	9.1	6.5	9.1	89	7.4	18	32	248	0.0	1015.8	0	0.000	0.0
20110113 19:55	9.1	6.3	9.1	89	7.4	19	35	248	0.0	1015.8	0	0.000	0.0
20110113 20:00	9.1	6.3	9.1	89	7.4	19	32	270	0.0	1015.8	0	0.025	0.0
20110113 20:05	9.1	6.6	9.1	89	7.3	16	29	248	0.0	1015.9	0	0.000	0.0
20110113 20:10	9.1	6.3	9.1	89	7.4	19	31	248	0.0	1015.8	0	0.000	0.0
20110113 20:15	9.2	6.6	9.2	89	7.5	18	29	248	0.0	1015.7	0	0.000	0.0
20110113 20:20	9.3	6.5	9.3	88	7.4	19	35	270	0.0	1015.8	0	0.000	0.0
20110113 20:25	9.4	6.5	9.4	87	7.4	23	34	270	0.0	1015.8	0	0.000	0.0
20110113 20:30	9.4	6.9	9.4	87	7.4	18	32	270	0.0	1015.9	0	0.000	0.0
20110113 20:35	9.6	6.7	9.6	87	7.5	21	35	270	0.0	1015.9	0	0.000	0.0
20110113 20:40	9.5	6.8	9.5	87	7.4	19	35	248	0.0	1016.0	0	0.000	0.0
20110113 20:45	9.4	6.6	9.4	88	7.6	21	34	248	0.0	1015.9	0	0.000	0.0
20110113 20:50	9.4	6.8	9.4	88	7.6	19	29	248	0.0	1016.0	0	0.000	0.0
20110113 20:55	9.4	6.6	9.4	87	7.4	21	32	248	0.0	1016.0	0	0.000	0.0
20110113 21:00	9.6	6.7	9.6	87	7.5	21	31	248	0.0	1016.0	0	0.025	0.0
20110113 21:05	9.5	7.2	9.5	87	7.4	16	26	248	0.0	1016.1	0	0.000	0.0
20110113 21:10	9.6	7.1	9.6	87	7.5	18	29	270	0.0	1016.1	0	0.000	0.0
20110113 21:15	9.6	6.8	9.6	87	7.6	21	32	270	0.0	1016.1	0	0.000	0.0
20110113 21:20	9.6	7.1	9.6	87	7.6	18	34	248	0.0	1016.2	0	0.000	0.0
20110113 21:25	9.6	7.1	9.6	87	7.5	18	35	270	0.0	1016.1	0	0.000	0.0
20110113 21:30	9.6	7.3	9.6	87	7.6	16	27	270	0.0	1016.1	0	0.000	0.0
20110113 21:35	9.6	7.1	9.6	87	7.5	18	32	248	0.0	1016.1	0	0.000	0.0
20110113 21:40	9.5	7.2	9.5	88	7.6	16	21	248	0.0	1016.1	0	0.000	0.0
20110113 21:45	9.5	7.2	9.5	88	7.6	16	27	270	0.0	1016.1	0	0.000	0.0
20110113 21:50	9.5	7.0	9.5	87	7.4	18	26	248	0.0	1016.0	0	0.000	0.0
20110113 21:55	9.6	7.2	9.6	87	7.5	16	27	270	0.0	1016.0	0	0.000	0.0
20110113 22:00	9.6	6.8	9.6	87	7.6	21	35	248	0.0	1016.0	0	0.025	0.0
20110113 22:05	9.7	7.2	9.7	87	7.6	18	29	248	0.0	1016.0	0	0.000	0.0
20110113 22:10	9.7	7.2	9.7	86	7.4	18	31	270	0.0	1016.1	0	0.000	0.0
20110113 22:15	9.7	7.2	9.7	86	7.4	18	27	248	0.0	1016.0	0	0.000	0.0
20110113 22:20	9.7	7.3	9.7	86	7.5	18	26	248	0.0	1016.0	0	0.000	0.0
20110113 22:25	9.7	7.2	9.7	87	7.6	18	27	248	0.0	1015.9	0	0.000	0.0
20110113 22:30	9.6	7.0	9.6	88	7.7	19	32	248	0.0	1016.1	0	0.000	0.0
20110113 22:35	9.6	6.9	9.6	88	7.7	19	31	270	0.0	1016.1	0	0.000	0.0
20110113 22:40	9.6	7.1	9.6	88	7.7	18	31	248	0.0	1016.1	0	0.000	0.0
20110113 22:45	9.6	7.2	9.6	88	7.7	16	27	270	0.0	1016.1	0	0.000	0.0
20110113 22:50	9.6	7.4	9.6	88	7.7	14	24	248	0.0	1016.1	0	0.000	0.0
20110113 22:55	9.7	7.4	9.7	87	7.6	16	29	270	0.0	1016.0	0	0.000	0.0
20110113 23:00	9.7	7.5	9.7	87	7.7	16	26	248	0.0	1016.0	0	0.025	0.0
20110113 23:05	9.8	7.5	9.8	87	7.7	16	31	270	0.0	1016.0	0	0.000	0.0
20110113 23:10	9.8	7.3	9.8	86	7.5	18	31	248	0.0	1016.0	0	0.000	0.0
20110113 23:15	9.8	7.4	9.8	86	7.6	18	29	270	0.0	1016.0	0	0.000	0.0
20110113 23:20	9.8	7.6	9.8	86	7.6	16	26	248	0.0	1016.1	0	0.000	0.0
20110113 23:25	9.8	7.6	9.8	86	7.6	16	24	248	0.0	1016.1	0	0.000	0.0
20110113 23:30	9.8	7.6	9.8	87	7.8	16	27	248	0.0	1016.3	0	0.000	0.0
20110113 23:35	9.8	7.6	9.8	87	7.8	16	29	248	0.0	1016.3	0	0.000	0.0
20110113 23:40	9.8	7.8	9.8	86	7.6	14	32	248	0.0	1016.3	0	0.000	0.0
20110113 23:45	9.8	7.6	9.8	87	7.8	16	29	248	0.0	1016.3	0	0.000	0.0
20110113 23:50	9.8	7.6	9.8	87	7.8	16	27	248	0.0	1016.3	0	0.000	0.0
20110113 23:55	9.8	7.6	9.8	87	7.8	16	27	270	0.0	1016.4	0	0.000	0.0



Please note the license to use and transfer of this data:
http://creativecommons.org/licenses/by-nc-sa/3.0/deed.en

Bitte beachten sie die Lizenz zur Verwertung und Weitergabe der Daten:
http://creativecommons.org/licenses/by-nc-sa/3.0/deed.de

zurück zur Übersicht der Archivdaten (Monats und Tagesdaten)

Cookies helfen bei der Bereitstellung von Inhalten. Durch die Nutzung dieser Seiten erklärst du dich damit einverstanden, dass Cookies auf deinem Rechner gespeichert werden. Weitere Information